sensor_id;sensor_type;location;lat;lon;timestamp;pressure;altitude;pressure_sealevel;temperature;humidity
24620;BME280;12763;55.802;37.404;2023-12-20T00:01:13;97706.53;;;5.76;100.00
24620;BME280;12763;55.802;37.404;2023-12-20T00:03:39;97695.97;;;5.79;100.00
24620;BME280;12763;55.802;37.404;2023-12-20T00:06:05;97702.78;;;5.88;100.00
24620;BME280;12763;55.802;37.404;2023-12-20T00:08:31;97706.84;;;5.86;100.00
24620;BME280;12763;55.802;37.404;2023-12-20T00:10:56;97709.41;;;5.81;100.00
24620;BME280;12763;55.802;37.404;2023-12-20T00:13:22;97711.16;;;5.94;100.00
24620;BME280;12763;55.802;37.404;2023-12-20T00:15:48;97716.19;;;5.78;100.00
24620;BME280;12763;55.802;37.404;2023-12-20T00:18:14;97723.81;;;6.06;100.00
24620;BME280;12763;55.802;37.404;2023-12-20T00:20:40;97729.84;;;5.97;100.00
24620;BME280;12763;55.802;37.404;2023-12-20T00:23:06;97739.47;;;5.87;100.00
24620;BME280;12763;55.802;37.404;2023-12-20T00:25:34;97720.09;;;6.01;100.00
24620;BME280;12763;55.802;37.404;2023-12-20T00:28:00;97718.00;;;5.84;100.00
24620;BME280;12763;55.802;37.404;2023-12-20T00:30:28;97720.09;;;6.01;100.00
24620;BME280;12763;55.802;37.404;2023-12-20T00:32:54;97728.06;;;6.02;100.00
24620;BME280;12763;55.802;37.404;2023-12-20T00:35:20;97733.19;;;5.99;100.00
24620;BME280;12763;55.802;37.404;2023-12-20T00:37:46;97732.56;;;5.97;100.00
24620;BME280;12763;55.802;37.404;2023-12-20T00:40:12;97730.91;;;5.96;100.00
24620;BME280;12763;55.802;37.404;2023-12-20T00:42:38;97739.00;;;5.90;100.00
24620;BME280;12763;55.802;37.404;2023-12-20T00:45:04;97741.66;;;6.09;100.00
24620;BME280;12763;55.802;37.404;2023-12-20T00:47:31;97739.78;;;6.09;100.00
24620;BME280;12763;55.802;37.404;2023-12-20T00:49:58;97731.22;;;6.17;100.00
24620;BME280;12763;55.802;37.404;2023-12-20T00:52:24;97727.19;;;6.20;100.00
24620;BME280;12763;55.802;37.404;2023-12-20T00:54:51;97731.66;;;6.03;100.00
24620;BME280;12763;55.802;37.404;2023-12-20T00:57:17;97732.06;;;6.18;100.00
24620;BME280;12763;55.802;37.404;2023-12-20T00:59:43;97713.34;;;6.15;100.00
24620;BME280;12763;55.802;37.404;2023-12-20T01:02:08;97727.72;;;5.99;100.00
24620;BME280;12763;55.802;37.404;2023-12-20T01:04:35;97707.28;;;6.13;100.00
24620;BME280;12763;55.802;37.404;2023-12-20T01:07:01;97714.38;;;5.90;100.00
24620;BME280;12763;55.802;37.404;2023-12-20T01:09:27;97701.13;;;5.87;100.00
24620;BME280;12763;55.802;37.404;2023-12-20T01:11:53;97696.91;;;6.03;100.00
24620;BME280;12763;55.802;37.404;2023-12-20T01:14:19;97700.97;;;6.12;100.00
24620;BME280;12763;55.802;37.404;2023-12-20T01:16:45;97693.72;;;6.18;100.00
24620;BME280;12763;55.802;37.404;2023-12-20T01:19:12;97689.25;;;5.94;100.00
24620;BME280;12763;55.802;37.404;2023-12-20T01:21:41;97693.69;;;6.06;100.00
24620;BME280;12763;55.802;37.404;2023-12-20T01:24:07;97697.28;;;6.07;100.00
24620;BME280;12763;55.802;37.404;2023-12-20T01:26:33;97700.75;;;6.25;100.00
24620;BME280;12763;55.802;37.404;2023-12-20T01:28:59;97690.38;;;6.27;100.00
24620;BME280;12763;55.802;37.404;2023-12-20T01:31:26;97689.66;;;6.09;100.00
24620;BME280;12763;55.802;37.404;2023-12-20T01:33:53;97687.56;;;6.34;100.00
24620;BME280;12763;55.802;37.404;2023-12-20T01:36:19;97696.63;;;6.46;100.00
24620;BME280;12763;55.802;37.404;2023-12-20T01:38:45;97690.41;;;6.39;100.00
24620;BME280;12763;55.802;37.404;2023-12-20T01:41:11;97668.56;;;6.09;100.00
24620;BME280;12763;55.802;37.404;2023-12-20T01:43:37;97674.22;;;6.26;100.00
24620;BME280;12763;55.802;37.404;2023-12-20T01:46:03;97671.69;;;6.13;100.00
24620;BME280;12763;55.802;37.404;2023-12-20T01:48:30;97673.97;;;6.16;100.00
24620;BME280;12763;55.802;37.404;2023-12-20T01:51:02;97655.53;;;6.34;100.00
24620;BME280;12763;55.802;37.404;2023-12-20T01:53:28;97653.47;;;6.07;100.00
24620;BME280;12763;55.802;37.404;2023-12-20T01:55:56;97673.16;;;5.85;100.00
24620;BME280;12763;55.802;37.404;2023-12-20T01:58:24;97673.97;;;6.16;100.00
24620;BME280;12763;55.802;37.404;2023-12-20T02:00:51;97671.81;;;6.18;100.00
24620;BME280;12763;55.802;37.404;2023-12-20T02:03:18;97665.41;;;6.24;100.00
24620;BME280;12763;55.802;37.404;2023-12-20T02:05:44;97674.81;;;5.86;100.00
24620;BME280;12763;55.802;37.404;2023-12-20T02:08:11;97667.19;;;5.88;100.00
24620;BME280;12763;55.802;37.404;2023-12-20T02:10:37;97669.13;;;6.00;100.00
24620;BME280;12763;55.802;37.404;2023-12-20T02:13:04;97636.69;;;6.15;100.00
24620;BME280;12763;55.802;37.404;2023-12-20T02:15:30;97631.44;;;6.02;100.00
24620;BME280;12763;55.802;37.404;2023-12-20T02:17:57;97629.41;;;6.09;100.00
24620;BME280;12763;55.802;37.404;2023-12-20T02:20:43;97637.75;;;6.14;100.00
24620;BME280;12763;55.802;37.404;2023-12-20T02:23:08;97649.06;;;6.17;100.00
24620;BME280;12763;55.802;37.404;2023-12-20T02:25:34;97653.47;;;6.07;100.00
24620;BME280;12763;55.802;37.404;2023-12-20T02:28:01;97653.19;;;5.97;100.00
24620;BME280;12763;55.802;37.404;2023-12-20T02:30:28;97657.84;;;6.08;100.00
24620;BME280;12763;55.802;37.404;2023-12-20T02:32:54;97651.34;;;6.32;100.00
24620;BME280;12763;55.802;37.404;2023-12-20T02:35:20;97649.91;;;6.18;100.00
24620;BME280;12763;55.802;37.404;2023-12-20T02:37:46;97655.25;;;6.13;100.00
24620;BME280;12763;55.802;37.404;2023-12-20T02:40:12;97647.50;;;6.10;100.00
24620;BME280;12763;55.802;37.404;2023-12-20T02:42:37;97656.56;;;6.22;100.00
24620;BME280;12763;55.802;37.404;2023-12-20T02:45:04;97648.97;;;6.24;100.00
24620;BME280;12763;55.802;37.404;2023-12-20T02:47:31;97644.78;;;6.33;100.00
24620;BME280;12763;55.802;37.404;2023-12-20T02:49:57;97653.13;;;6.26;100.00
24620;BME280;12763;55.802;37.404;2023-12-20T02:52:24;97641.56;;;6.36;100.00
24620;BME280;12763;55.802;37.404;2023-12-20T02:54:50;97643.13;;;6.32;100.00
24620;BME280;12763;55.802;37.404;2023-12-20T02:57:16;97641.84;;;6.46;100.00
24620;BME280;12763;55.802;37.404;2023-12-20T02:59:42;97638.94;;;6.41;100.00
24620;BME280;12763;55.802;37.404;2023-12-20T03:02:08;97631.94;;;6.33;100.00
24620;BME280;12763;55.802;37.404;2023-12-20T03:04:34;97633.34;;;6.36;100.00
24620;BME280;12763;55.802;37.404;2023-12-20T03:07:00;97614.06;;;6.42;100.00
24620;BME280;12763;55.802;37.404;2023-12-20T03:09:26;97617.50;;;6.38;100.00
24620;BME280;12763;55.802;37.404;2023-12-20T03:11:52;97623.22;;;6.25;100.00
24620;BME280;12763;55.802;37.404;2023-12-20T03:14:18;97629.19;;;6.22;100.00
24620;BME280;12763;55.802;37.404;2023-12-20T03:16:50;97632.78;;;6.57;100.00
24620;BME280;12763;55.802;37.404;2023-12-20T03:19:17;97646.63;;;5.86;100.00
24620;BME280;12763;55.802;37.404;2023-12-20T03:21:45;97641.28;;;6.03;100.00
24620;BME280;12763;55.802;37.404;2023-12-20T03:24:11;97637.72;;;6.02;100.00
24620;BME280;12763;55.802;37.404;2023-12-20T03:26:38;97634.50;;;5.94;100.00
24620;BME280;12763;55.802;37.404;2023-12-20T03:29:04;97642.81;;;5.87;100.00
24620;BME280;12763;55.802;37.404;2023-12-20T03:31:30;97645.59;;;5.99;100.00
24620;BME280;12763;55.802;37.404;2023-12-20T03:33:56;97634.97;;;6.02;100.00
24620;BME280;12763;55.802;37.404;2023-12-20T03:36:22;97635.13;;;6.19;100.00
24620;BME280;12763;55.802;37.404;2023-12-20T03:38:48;97644.44;;;6.18;100.00
24620;BME280;12763;55.802;37.404;2023-12-20T03:41:14;97635.88;;;6.26;100.00
24620;BME280;12763;55.802;37.404;2023-12-20T03:43:40;97645.13;;;6.02;100.00
24620;BME280;12763;55.802;37.404;2023-12-20T03:46:08;97640.84;;;5.76;100.00
24620;BME280;12763;55.802;37.404;2023-12-20T03:48:34;97642.34;;;5.90;100.00
24620;BME280;12763;55.802;37.404;2023-12-20T03:51:00;97633.88;;;5.91;100.00
24620;BME280;12763;55.802;37.404;2023-12-20T03:53:27;97647.13;;;5.95;100.00
24620;BME280;12763;55.802;37.404;2023-12-20T03:55:53;97650.94;;;6.05;100.00
24620;BME280;12763;55.802;37.404;2023-12-20T03:58:19;97638.53;;;5.91;100.00
24620;BME280;12763;55.802;37.404;2023-12-20T04:00:45;97631.91;;;5.99;100.00
24620;BME280;12763;55.802;37.404;2023-12-20T04:03:11;97641.56;;;6.13;100.00
24620;BME280;12763;55.802;37.404;2023-12-20T04:05:42;97638.34;;;6.27;100.00
24620;BME280;12763;55.802;37.404;2023-12-20T04:08:08;97645.38;;;6.12;100.00
24620;BME280;12763;55.802;37.404;2023-12-20T04:10:34;97657.25;;;6.06;100.00
24620;BME280;12763;55.802;37.404;2023-12-20T04:13:00;97657.41;;;6.22;100.00
24620;BME280;12763;55.802;37.404;2023-12-20T04:15:26;97655.00;;;6.14;100.00
24620;BME280;12763;55.802;37.404;2023-12-20T04:17:52;97650.97;;;6.17;100.00
24620;BME280;12763;55.802;37.404;2023-12-20T04:20:18;97642.75;;;6.17;100.00
24620;BME280;12763;55.802;37.404;2023-12-20T04:22:44;97653.31;;;5.90;100.00
24620;BME280;12763;55.802;37.404;2023-12-20T04:25:10;97664.19;;;5.78;100.00
24620;BME280;12763;55.802;37.404;2023-12-20T04:27:36;97677.72;;;5.73;100.00
24620;BME280;12763;55.802;37.404;2023-12-20T04:30:02;97657.38;;;5.99;100.00
24620;BME280;12763;55.802;37.404;2023-12-20T04:32:30;97676.81;;;5.79;100.00
24620;BME280;12763;55.802;37.404;2023-12-20T04:34:57;97680.09;;;6.00;100.00
24620;BME280;12763;55.802;37.404;2023-12-20T04:37:23;97667.50;;;5.99;100.00
24620;BME280;12763;55.802;37.404;2023-12-20T04:39:49;97671.47;;;5.84;100.00
24620;BME280;12763;55.802;37.404;2023-12-20T04:42:16;97670.69;;;5.96;100.00
24620;BME280;12763;55.802;37.404;2023-12-20T04:44:42;97688.47;;;6.05;100.00
24620;BME280;12763;55.802;37.404;2023-12-20T04:47:10;97680.47;;;6.03;100.00
24620;BME280;12763;55.802;37.404;2023-12-20T04:49:36;97665.50;;;6.17;100.00
24620;BME280;12763;55.802;37.404;2023-12-20T04:52:02;97669.13;;;6.00;100.00
24620;BME280;12763;55.802;37.404;2023-12-20T04:54:28;97664.88;;;6.04;100.00
24620;BME280;12763;55.802;37.404;2023-12-20T04:56:54;97679.44;;;6.16;100.00
24620;BME280;12763;55.802;37.404;2023-12-20T04:59:20;97670.84;;;6.12;100.00
24620;BME280;12763;55.802;37.404;2023-12-20T05:01:47;97669.88;;;6.07;100.00
24620;BME280;12763;55.802;37.404;2023-12-20T05:04:13;97676.03;;;5.90;100.00
24620;BME280;12763;55.802;37.404;2023-12-20T05:06:39;97667.59;;;5.92;100.00
24620;BME280;12763;55.802;37.404;2023-12-20T05:09:04;97663.41;;;5.89;100.00
24620;BME280;12763;55.802;37.404;2023-12-20T05:11:31;97664.00;;;5.91;100.00
24620;BME280;12763;55.802;37.404;2023-12-20T05:13:57;97659.66;;;6.14;100.00
24620;BME280;12763;55.802;37.404;2023-12-20T05:16:22;97660.75;;;6.13;100.00
24620;BME280;12763;55.802;37.404;2023-12-20T05:18:48;97661.31;;;6.15;100.00
24620;BME280;12763;55.802;37.404;2023-12-20T05:21:18;97666.69;;;6.10;100.00
24620;BME280;12763;55.802;37.404;2023-12-20T05:23:45;97668.13;;;6.24;100.00
24620;BME280;12763;55.802;37.404;2023-12-20T05:26:11;97669.44;;;6.33;100.00
24620;BME280;12763;55.802;37.404;2023-12-20T05:28:37;97670.03;;;6.23;100.00
24620;BME280;12763;55.802;37.404;2023-12-20T05:31:03;97677.25;;;6.06;100.00
24620;BME280;12763;55.802;37.404;2023-12-20T05:33:30;97685.84;;;6.10;100.00
24620;BME280;12763;55.802;37.404;2023-12-20T05:35:56;97679.53;;;6.09;100.00
24620;BME280;12763;55.802;37.404;2023-12-20T05:38:21;97700.97;;;5.82;100.00
24620;BME280;12763;55.802;37.404;2023-12-20T05:40:47;97705.81;;;5.69;100.00
24620;BME280;12763;55.802;37.404;2023-12-20T05:43:13;97726.09;;;5.61;100.00
24620;BME280;12763;55.802;37.404;2023-12-20T05:45:39;97684.41;;;5.77;100.00
24620;BME280;12763;55.802;37.404;2023-12-20T05:48:05;97698.06;;;5.77;100.00
24620;BME280;12763;55.802;37.404;2023-12-20T05:50:31;97699.38;;;5.75;100.00
24620;BME280;12763;55.802;37.404;2023-12-20T05:52:57;97695.13;;;5.79;100.00
24620;BME280;12763;55.802;37.404;2023-12-20T05:55:23;97690.19;;;5.87;100.00
24620;BME280;12763;55.802;37.404;2023-12-20T05:57:49;97694.94;;;5.92;100.00
24620;BME280;12763;55.802;37.404;2023-12-20T06:00:15;97674.13;;;5.91;100.00
24620;BME280;12763;55.802;37.404;2023-12-20T06:02:42;97679.38;;;5.93;100.00
24620;BME280;12763;55.802;37.404;2023-12-20T06:05:07;97684.88;;;6.04;100.00
24620;BME280;12763;55.802;37.404;2023-12-20T06:07:34;97682.56;;;5.89;100.00
24620;BME280;12763;55.802;37.404;2023-12-20T06:10:00;97681.06;;;5.94;100.00
24620;BME280;12763;55.802;37.404;2023-12-20T06:12:26;97687.50;;;6.11;100.00
24620;BME280;12763;55.802;37.404;2023-12-20T06:14:57;97691.66;;;6.02;100.00
24620;BME280;12763;55.802;37.404;2023-12-20T06:17:23;97693.94;;;6.05;100.00
24620;BME280;12763;55.802;37.404;2023-12-20T06:19:49;97694.56;;;6.18;100.00
24620;BME280;12763;55.802;37.404;2023-12-20T06:22:15;97709.56;;;5.86;100.00
24620;BME280;12763;55.802;37.404;2023-12-20T06:25:04;97711.56;;;6.09;100.00
24620;BME280;12763;55.802;37.404;2023-12-20T06:27:30;97711.22;;;6.17;100.00
24620;BME280;12763;55.802;37.404;2023-12-20T06:29:58;97708.56;;;5.99;100.00
24620;BME280;12763;55.802;37.404;2023-12-20T06:32:24;97714.44;;;6.25;100.00
24620;BME280;12763;55.802;37.404;2023-12-20T06:34:50;97710.03;;;6.13;100.00
24620;BME280;12763;55.802;37.404;2023-12-20T06:37:16;97690.44;;;5.98;100.00
24620;BME280;12763;55.802;37.404;2023-12-20T06:39:42;97707.84;;;6.03;100.00
24620;BME280;12763;55.802;37.404;2023-12-20T06:42:08;97707.00;;;6.03;100.00
24620;BME280;12763;55.802;37.404;2023-12-20T06:44:34;97703.84;;;6.17;100.00
24620;BME280;12763;55.802;37.404;2023-12-20T06:47:00;97709.59;;;6.39;100.00
24620;BME280;12763;55.802;37.404;2023-12-20T06:49:26;97705.22;;;6.08;100.00
24620;BME280;12763;55.802;37.404;2023-12-20T06:51:52;97695.34;;;5.96;100.00
24620;BME280;12763;55.802;37.404;2023-12-20T06:54:18;97700.38;;;6.22;100.00
24620;BME280;12763;55.802;37.404;2023-12-20T06:56:44;97704.06;;;6.04;100.00
24620;BME280;12763;55.802;37.404;2023-12-20T06:59:10;97693.53;;;5.89;100.00
24620;BME280;12763;55.802;37.404;2023-12-20T07:01:36;97684.78;;;6.22;100.00
24620;BME280;12763;55.802;37.404;2023-12-20T07:04:02;97703.38;;;6.20;100.00
24620;BME280;12763;55.802;37.404;2023-12-20T07:06:28;97699.75;;;6.08;100.00
24620;BME280;12763;55.802;37.404;2023-12-20T07:08:54;97697.06;;;6.20;100.00
24620;BME280;12763;55.802;37.404;2023-12-20T07:11:20;97697.78;;;6.27;100.00
24620;BME280;12763;55.802;37.404;2023-12-20T07:13:45;97695.78;;;6.34;100.00
24620;BME280;12763;55.802;37.404;2023-12-20T07:16:11;97694.69;;;6.23;100.00
24620;BME280;12763;55.802;37.404;2023-12-20T07:18:37;97703.06;;;6.40;100.00
24620;BME280;12763;55.802;37.404;2023-12-20T07:21:03;97712.56;;;6.26;100.00
24620;BME280;12763;55.802;37.404;2023-12-20T07:23:29;97694.94;;;6.45;100.00
24620;BME280;12763;55.802;37.404;2023-12-20T07:25:55;97708.53;;;6.40;100.00
24620;BME280;12763;55.802;37.404;2023-12-20T07:28:21;97706.63;;;6.52;100.00
24620;BME280;12763;55.802;37.404;2023-12-20T07:30:46;97709.84;;;6.37;100.00
24620;BME280;12763;55.802;37.404;2023-12-20T07:33:12;97721.34;;;6.28;100.00
24620;BME280;12763;55.802;37.404;2023-12-20T07:35:38;97706.84;;;6.39;100.00
24620;BME280;12763;55.802;37.404;2023-12-20T07:38:04;97721.06;;;6.59;100.00
24620;BME280;12763;55.802;37.404;2023-12-20T07:40:30;97722.22;;;6.63;100.00
24620;BME280;12763;55.802;37.404;2023-12-20T07:42:56;97740.06;;;6.31;100.00
24620;BME280;12763;55.802;37.404;2023-12-20T07:45:23;97748.53;;;6.41;100.00
24620;BME280;12763;55.802;37.404;2023-12-20T07:47:49;97736.63;;;6.47;100.00
24620;BME280;12763;55.802;37.404;2023-12-20T07:50:16;97751.28;;;6.41;100.00
24620;BME280;12763;55.802;37.404;2023-12-20T07:52:42;97740.88;;;6.20;100.00
24620;BME280;12763;55.802;37.404;2023-12-20T07:55:08;97750.13;;;6.19;100.00
24620;BME280;12763;55.802;37.404;2023-12-20T07:57:33;97746.59;;;6.30;100.00
24620;BME280;12763;55.802;37.404;2023-12-20T07:59:59;97750.63;;;6.57;100.00
24620;BME280;12763;55.802;37.404;2023-12-20T08:02:25;97752.59;;;6.50;100.00
24620;BME280;12763;55.802;37.404;2023-12-20T08:04:51;97751.91;;;6.43;100.00
24620;BME280;12763;55.802;37.404;2023-12-20T08:07:17;97749.28;;;6.48;100.00
24620;BME280;12763;55.802;37.404;2023-12-20T08:09:43;97749.78;;;6.68;100.00
24620;BME280;12763;55.802;37.404;2023-12-20T08:12:09;97750.47;;;6.64;100.00
24620;BME280;12763;55.802;37.404;2023-12-20T08:14:35;97738.09;;;6.61;100.00
24620;BME280;12763;55.802;37.404;2023-12-20T08:17:01;97755.22;;;6.45;100.00
24620;BME280;12763;55.802;37.404;2023-12-20T08:19:26;97754.53;;;6.61;100.00
24620;BME280;12763;55.802;37.404;2023-12-20T08:21:52;97752.66;;;6.73;100.00
24620;BME280;12763;55.802;37.404;2023-12-20T08:24:18;97756.56;;;6.66;100.00
24620;BME280;12763;55.802;37.404;2023-12-20T08:26:44;97746.94;;;6.86;100.00
24620;BME280;12763;55.802;37.404;2023-12-20T08:29:13;97751.31;;;6.99;100.00
24620;BME280;12763;55.802;37.404;2023-12-20T08:31:39;97750.47;;;6.52;100.00
24620;BME280;12763;55.802;37.404;2023-12-20T08:34:05;97755.84;;;6.59;100.00
24620;BME280;12763;55.802;37.404;2023-12-20T08:36:31;97748.47;;;6.82;100.00
24620;BME280;12763;55.802;37.404;2023-12-20T08:38:57;97739.53;;;6.75;100.00
24620;BME280;12763;55.802;37.404;2023-12-20T08:41:23;97737.50;;;6.59;100.00
24620;BME280;12763;55.802;37.404;2023-12-20T08:43:49;97745.97;;;6.81;100.00
24620;BME280;12763;55.802;37.404;2023-12-20T08:46:15;97739.06;;;6.78;100.00
24620;BME280;12763;55.802;37.404;2023-12-20T08:48:41;97729.16;;;6.89;100.00
24620;BME280;12763;55.802;37.404;2023-12-20T08:51:07;97738.13;;;6.84;100.00
24620;BME280;12763;55.802;37.404;2023-12-20T08:53:34;97733.00;;;6.76;100.00
24620;BME280;12763;55.802;37.404;2023-12-20T08:56:00;97742.38;;;6.69;100.00
24620;BME280;12763;55.802;37.404;2023-12-20T08:58:28;97732.53;;;6.79;100.00
24620;BME280;12763;55.802;37.404;2023-12-20T09:00:54;97725.13;;;6.68;100.00
24620;BME280;12763;55.802;37.404;2023-12-20T09:03:20;97731.06;;;6.77;100.00
24620;BME280;12763;55.802;37.404;2023-12-20T09:05:46;97725.00;;;6.98;100.00
24620;BME280;12763;55.802;37.404;2023-12-20T09:08:12;97706.16;;;6.78;100.00
24620;BME280;12763;55.802;37.404;2023-12-20T09:10:38;97725.72;;;6.82;100.00
24620;BME280;12763;55.802;37.404;2023-12-20T09:13:04;97724.06;;;6.92;100.00
24620;BME280;12763;55.802;37.404;2023-12-20T09:15:30;97725.94;;;7.03;100.00
24620;BME280;12763;55.802;37.404;2023-12-20T09:17:56;97731.19;;;7.17;100.00
24620;BME280;12763;55.802;37.404;2023-12-20T09:20:22;97727.00;;;7.02;100.00
24620;BME280;12763;55.802;37.404;2023-12-20T09:22:50;97715.19;;;7.14;100.00
24620;BME280;12763;55.802;37.404;2023-12-20T09:25:16;97726.66;;;6.99;100.00
24620;BME280;12763;55.802;37.404;2023-12-20T09:27:45;97729.75;;;6.91;100.00
24620;BME280;12763;55.802;37.404;2023-12-20T09:30:12;97722.69;;;7.18;100.00
24620;BME280;12763;55.802;37.404;2023-12-20T09:32:38;97722.84;;;7.12;100.00
24620;BME280;12763;55.802;37.404;2023-12-20T09:35:04;97728.31;;;7.12;100.00
24620;BME280;12763;55.802;37.404;2023-12-20T09:37:32;97737.34;;;7.24;100.00
24620;BME280;12763;55.802;37.404;2023-12-20T09:39:58;97728.66;;;7.27;100.00
24620;BME280;12763;55.802;37.404;2023-12-20T09:42:33;97724.16;;;7.21;100.00
24620;BME280;12763;55.802;37.404;2023-12-20T09:45:08;97723.78;;;7.05;100.00
24620;BME280;12763;55.802;37.404;2023-12-20T09:47:37;97720.69;;;6.90;100.00
24620;BME280;12763;55.802;37.404;2023-12-20T09:50:04;97724.53;;;6.89;100.00
24620;BME280;12763;55.802;37.404;2023-12-20T09:52:31;97728.59;;;6.87;100.00
24620;BME280;12763;55.802;37.404;2023-12-20T09:54:58;97734.53;;;6.72;100.00
24620;BME280;12763;55.802;37.404;2023-12-20T09:57:24;97733.69;;;6.48;100.00
24620;BME280;12763;55.802;37.404;2023-12-20T09:59:50;97751.91;;;6.66;100.00
24620;BME280;12763;55.802;37.404;2023-12-20T10:02:18;97742.03;;;6.77;100.00
24620;BME280;12763;55.802;37.404;2023-12-20T10:04:47;97731.41;;;6.69;100.00
24620;BME280;12763;55.802;37.404;2023-12-20T10:07:13;97742.03;;;6.65;100.00
24620;BME280;12763;55.802;37.404;2023-12-20T10:09:40;97735.72;;;6.76;100.00
24620;BME280;12763;55.802;37.404;2023-12-20T10:12:07;97732.53;;;6.79;100.00
24620;BME280;12763;55.802;37.404;2023-12-20T10:14:34;97722.72;;;6.72;100.00
24620;BME280;12763;55.802;37.404;2023-12-20T10:17:04;97732.59;;;6.96;100.00
24620;BME280;12763;55.802;37.404;2023-12-20T10:19:31;97720.22;;;6.93;100.00
24620;BME280;12763;55.802;37.404;2023-12-20T10:22:00;97728.31;;;7.12;100.00
24620;BME280;12763;55.802;37.404;2023-12-20T10:24:28;97737.03;;;7.08;100.00
24620;BME280;12763;55.802;37.404;2023-12-20T10:27:05;97724.16;;;7.09;100.00
24620;BME280;12763;55.802;37.404;2023-12-20T10:32:24;97739.50;;;7.22;100.00
24620;BME280;12763;55.802;37.404;2023-12-20T10:34:51;97735.34;;;6.61;100.00
24620;BME280;12763;55.802;37.404;2023-12-20T10:37:17;97755.50;;;6.78;100.00
24620;BME280;12763;55.802;37.404;2023-12-20T10:39:43;97732.38;;;6.74;100.00
24620;BME280;12763;55.802;37.404;2023-12-20T10:42:12;97741.94;;;7.06;100.00
24620;BME280;12763;55.802;37.404;2023-12-20T10:44:39;97734.06;;;6.87;100.00
24620;BME280;12763;55.802;37.404;2023-12-20T10:47:06;97743.25;;;6.92;100.00
24620;BME280;12763;55.802;37.404;2023-12-20T10:49:34;97734.53;;;6.95;100.00
24620;BME280;12763;55.802;37.404;2023-12-20T10:52:03;97735.50;;;6.89;100.00
24620;BME280;12763;55.802;37.404;2023-12-20T10:54:29;97735.47;;;7.13;100.00
24620;BME280;12763;55.802;37.404;2023-12-20T10:56:57;97743.09;;;6.99;100.00
24620;BME280;12763;55.802;37.404;2023-12-20T10:59:24;97737.63;;;7.10;100.00
24620;BME280;12763;55.802;37.404;2023-12-20T11:01:53;97734.28;;;7.32;100.00
24620;BME280;12763;55.802;37.404;2023-12-20T11:04:25;97735.13;;;7.09;100.00
24620;BME280;12763;55.802;37.404;2023-12-20T11:06:56;97726.31;;;6.95;100.00
24620;BME280;12763;55.802;37.404;2023-12-20T11:09:33;97712.94;;;6.99;100.00
24620;BME280;12763;55.802;37.404;2023-12-20T11:12:22;97733.34;;;6.91;100.00
24620;BME280;12763;55.802;37.404;2023-12-20T11:14:54;97720.91;;;7.24;100.00
24620;BME280;12763;55.802;37.404;2023-12-20T11:17:23;97729.63;;;7.09;100.00
24620;BME280;12763;55.802;37.404;2023-12-20T11:22:22;97722.84;;;7.12;100.00
24620;BME280;12763;55.802;37.404;2023-12-20T11:24:48;97729.00;;;7.19;100.00
24620;BME280;12763;55.802;37.404;2023-12-20T11:27:15;97725.47;;;7.06;100.00
24620;BME280;12763;55.802;37.404;2023-12-20T11:29:42;97728.66;;;7.27;100.00
24620;BME280;12763;55.802;37.404;2023-12-20T11:34:57;97722.31;;;7.38;100.00
24620;BME280;12763;55.802;37.404;2023-12-20T11:37:31;97725.44;;;7.18;100.00
24620;BME280;12763;55.802;37.404;2023-12-20T11:40:08;97729.28;;;7.05;100.00
24620;BME280;12763;55.802;37.404;2023-12-20T11:42:41;97730.59;;;7.15;100.00
24620;BME280;12763;55.802;37.404;2023-12-20T11:45:11;97727.97;;;7.20;100.00
24620;BME280;12763;55.802;37.404;2023-12-20T11:47:42;97726.88;;;7.21;100.00
24620;BME280;12763;55.802;37.404;2023-12-20T11:50:08;97736.56;;;7.12;100.00
24620;BME280;12763;55.802;37.404;2023-12-20T11:52:35;97736.66;;;7.17;100.00
24620;BME280;12763;55.802;37.404;2023-12-20T11:55:01;97746.69;;;6.99;100.00
24620;BME280;12763;55.802;37.404;2023-12-20T11:57:26;97753.00;;;7.12;100.00
24620;BME280;12763;55.802;37.404;2023-12-20T11:59:52;97748.84;;;7.21;100.00
24620;BME280;12763;55.802;37.404;2023-12-20T12:02:18;97744.06;;;7.04;100.00
24620;BME280;12763;55.802;37.404;2023-12-20T12:04:45;97735.38;;;6.84;100.00
24620;BME280;12763;55.802;37.404;2023-12-20T12:07:11;97748.25;;;6.95;100.00
24620;BME280;12763;55.802;37.404;2023-12-20T12:09:37;97748.34;;;6.77;100.00
24620;BME280;12763;55.802;37.404;2023-12-20T12:12:03;97754.19;;;6.81;100.00
24620;BME280;12763;55.802;37.404;2023-12-20T12:14:29;97752.88;;;6.72;100.00
24620;BME280;12763;55.802;37.404;2023-12-20T12:16:55;97768.28;;;6.84;100.00
24620;BME280;12763;55.802;37.404;2023-12-20T12:19:25;97756.00;;;6.87;100.00
24620;BME280;12763;55.802;37.404;2023-12-20T12:22:36;97763.38;;;6.86;100.00
24620;BME280;12763;55.802;37.404;2023-12-20T12:24:59;97762.31;;;6.76;100.00
24620;BME280;12763;55.802;37.404;2023-12-20T12:27:25;97758.34;;;6.60;100.00
24620;BME280;12763;55.802;37.404;2023-12-20T12:30:05;97760.88;;;6.73;100.00
24620;BME280;12763;55.802;37.404;2023-12-20T12:32:33;97769.56;;;6.70;100.00
24620;BME280;12763;55.802;37.404;2023-12-20T12:34:59;97772.19;;;6.65;100.00
24620;BME280;12763;55.802;37.404;2023-12-20T12:37:25;97774.06;;;6.53;100.00
24620;BME280;12763;55.802;37.404;2023-12-20T12:39:55;97776.09;;;6.58;100.00
24620;BME280;12763;55.802;37.404;2023-12-20T12:42:22;97792.03;;;6.37;100.00
24620;BME280;12763;55.802;37.404;2023-12-20T12:44:51;97798.44;;;6.31;100.00
24620;BME280;12763;55.802;37.404;2023-12-20T12:47:17;97803.91;;;6.31;100.00
24620;BME280;12763;55.802;37.404;2023-12-20T12:49:44;97810.09;;;6.38;100.00
24620;BME280;12763;55.802;37.404;2023-12-20T12:52:10;97821.66;;;6.29;100.00
24620;BME280;12763;55.802;37.404;2023-12-20T12:54:36;97808.81;;;6.41;100.00
24620;BME280;12763;55.802;37.404;2023-12-20T12:57:03;97820.66;;;6.23;100.00